Latest Weather Observations for Braidwood

IDN60801

Issued at 2:05 pm EDT Thursday 23 October 2014 (issued every 30 minutes, with the page automatically refreshed every 10 minutes)

About weather observations | Map of weather stations | Latest weather observations for NSW | Other Formats
Station Details ID: 069132 Name: BRAIDWOOD RACECOURSE AWS Lat: -35.43 Lon: 149.78 Height: 665.2 m
Data from the previous 72 hours. | See also: Recent months at Braidwood
Date/Time
EDT
Temp
°C
App
Temp
°C
Dew
Point
Rel
Hum
%
Delta-T
°C
Wind Press
QNH
hPa
Press
MSL
hPa
Rain
since 9 am
mm
Dir
 
Spd
km/h
Gust
km/h
Spd
kts
Gust
kts
23/02:00pm 25.1 21.8 9.4 37 8.8 ESE 17 24 9 13 1018.8 1018.1 0.0
23/01:30pm 23.6 21.8 12.0 48 6.8 E 13 19 7 10 1019.4 1018.6 0.0
23/01:00pm 25.0 22.1 9.7 38 8.6 ESE 15 22 8 12 1019.6 1018.9 0.0
23/12:30pm 25.0 23.0 11.6 43 7.8 E 13 20 7 11 1019.6 1018.9 0.0
23/12:00pm 25.1 23.7 9.0 36 9.0 SSE 6 15 3 8 1020.0 1019.3 0.0
23/11:30am 25.2 26.6 14.3 50 6.7 CALM 0 0 0 0 1020.2 1019.5 0.0
23/11:00am 24.3 25.6 14.1 53 6.2 CALM 0 0 0 0 1020.2 1019.5 0.0
23/10:30am 23.6 25.4 15.4 60 5.1 CALM 0 0 0 0 1020.4 1019.7 0.0
23/10:00am 22.1 23.6 14.7 63 4.5 CALM 0 0 0 0 1020.3 1019.6 0.0
23/09:30am 20.3 21.9 14.9 71 3.3 CALM 0 0 0 0 1020.3 1019.6 0.0
23/09:00am 17.7 19.3 14.8 83 1.7 CALM 0 0 0 0 1020.2 1019.5 0.0
23/08:30am 15.9 17.5 14.9 94 0.6 CALM 0 0 0 0 1020.3 1019.6 0.0
23/08:00am 13.3 14.2 12.8 97 0.3 CALM 0 0 0 0 1020.3 1019.6 0.0
23/07:30am 12.0 12.5 11.5 97 0.3 CALM 0 0 0 0 1020.2 1019.5 0.0
23/07:00am 10.0 9.9 9.5 97 0.3 CALM 0 0 0 0 1020.1 1019.4 0.0
23/06:30am 8.9 8.5 8.3 96 0.3 CALM 0 0 0 0 1019.7 1019.0 0.0
23/06:00am 8.2 7.6 7.6 96 0.3 SE 0 0 0 0 1019.7 1019.0 0.0
23/05:30am 7.9 7.3 7.3 96 0.3 CALM 0 0 0 0 1019.3 1018.5 0.0
23/05:00am 7.7 7.0 7.1 96 0.3 CALM 0 0 0 0 1019.3 1018.5 0.0
23/04:30am 7.9 7.3 7.3 96 0.3 CALM 0 0 0 0 1019.0 1018.2 0.0
23/04:00am 8.3 7.8 7.7 96 0.3 CALM 0 0 0 0 1018.8 1018.1 0.0
23/03:30am 7.9 7.3 7.3 96 0.3 CALM 0 0 0 0 1019.0 1018.2 0.0
23/03:00am 8.1 7.5 7.5 96 0.3 CALM 0 0 0 0 1019.3 1018.5 0.0
23/02:30am 7.5 6.8 6.8 95 0.3 CALM 0 0 0 0 1019.5 1018.8 0.0
23/02:00am 9.2 8.9 8.6 96 0.3 CALM 0 0 0 0 1019.7 1019.0 0.0
23/01:30am 8.5 8.0 7.7 95 0.4 CALM 0 0 0 0 1020.0 1019.3 0.0
23/01:00am 9.0 8.6 8.2 95 0.4 CALM 0 0 0 0 1020.2 1019.5 0.0
23/12:30am 9.3 8.9 8.4 94 0.5 CALM 0 0 0 0 1020.2 1019.5 0.0
23/12:00am 9.8 9.5 8.7 93 0.6 SSE 0 0 0 0 1020.4 1019.7 0.0
 
Date/Time
EDT
Temp
°C
App
Temp
°C
Dew
Point
Rel
Hum
%
Delta-T
°C
Wind Press
QNH
hPa
Press
MSL
hPa
Rain
since 9 am
mm
Dir
 
Spd
km/h
Gust
km/h
Spd
kts
Gust
kts
22/11:30pm 10.7 10.6 9.3 91 0.7 CALM 0 0 0 0 1020.6 1019.8 0.0
22/11:00pm 11.0 10.9 9.6 91 0.7 CALM 0 0 0 0 1020.8 1020.0 0.0
22/10:30pm 12.3 12.6 11.0 92 0.7 CALM 0 0 0 0 1020.8 1020.0 0.0
22/10:00pm 12.2 12.4 10.6 90 0.9 CALM 0 0 0 0 1020.9 1020.2 0.0
22/09:30pm 12.3 12.5 10.5 89 1.0 CALM 0 0 0 0 1020.8 1020.0 0.0
22/09:00pm 13.6 14.0 11.3 86 1.3 CALM 0 0 0 0 1020.8 1020.0 0.0
22/08:30pm 14.5 15.0 11.7 83 1.6 CALM 0 0 0 0 1020.4 1019.7 0.0
22/08:00pm 16.2 17.0 12.6 79 2.0 CALM 0 0 0 0 1020.2 1019.5 0.0
22/07:30pm 17.2 17.9 12.1 72 2.9 NW 0 0 0 0 1020.0 1019.3 0.0
22/07:00pm 20.1 20.3 13.1 64 4.1 NNW 4 7 2 4 1019.7 1019.0 0.0
22/06:30pm 22.1 22.1 13.7 59 5.0 NNW 6 11 3 6 1019.5 1018.8 0.0
22/06:00pm 23.3 23.3 14.3 57 5.4 NNW 7 15 4 8 1019.4 1018.6 0.0
22/05:30pm 23.9 23.6 13.4 51 6.3 N 7 13 4 7 1019.4 1018.6 0.0
22/05:00pm 24.3 23.7 13.5 51 6.5 NNW 9 15 5 8 1019.4 1018.6 0.0
22/04:30pm 24.4 23.9 12.7 48 6.9 NNW 7 15 4 8 1019.5 1018.8 0.0
22/04:00pm 24.4 23.6 13.0 49 6.8 NNW 9 17 5 9 1019.8 1019.1 0.0
22/03:30pm 23.8 23.0 12.8 50 6.5 NNW 9 19 5 10 1020.1 1019.4 0.0
22/03:00pm 24.3 24.0 14.4 54 6.0 NNW 9 15 5 8 1020.4 1019.7 0.0
22/02:30pm 23.3 22.7 12.3 50 6.5 NNW 7 17 4 9 1020.9 1020.2 0.0
22/02:00pm 22.9 22.5 13.1 54 5.8 N 7 15 4 8 1021.4 1020.7 0.0
22/01:30pm 22.4 22.1 13.2 56 5.5 N 7 15 4 8 1021.9 1021.2 0.0
22/01:00pm 21.1 21.2 14.5 66 4.0 N 7 15 4 8 1022.6 1021.9 0.0
22/12:30pm 19.0 18.2 11.6 62 4.2 N 7 13 4 7 1023.1 1022.4 0.0
22/12:00pm 17.5 16.5 10.9 65 3.7 N 7 13 4 7 1024.0 1023.3 0.0
22/11:30am 16.5 15.3 11.6 73 2.7 N 9 17 5 9 1024.7 1024.1 0.0
22/11:00am 14.7 13.2 10.7 77 2.2 N 9 15 5 8 1025.2 1024.6 0.0
22/10:30am 13.6 12.1 9.3 75 2.3 NNW 7 15 4 8 1025.7 1025.0 0.0
22/10:00am 11.9 9.5 8.6 80 1.7 NW 11 20 6 11 1026.0 1025.4 0.0
22/09:30am 10.8 8.5 7.3 79 1.7 NNW 9 19 5 10 1026.2 1025.6 0.0
22/09:00am 10.4 8.4 7.3 81 1.5 NNW 7 11 4 6 1026.1 1025.5 0.0
22/08:30am 10.1 8.3 7.2 82 1.4 N 6 13 3 7 1026.1 1025.5 0.0
22/08:00am 10.1 8.1 7.2 82 1.4 N 7 13 4 7 1026.2 1025.6 0.0
22/07:30am 9.6 7.8 7.2 85 1.2 N 6 11 3 6 1026.4 1025.8 0.0
22/07:00am 9.0 8.0 7.5 90 0.7 N 2 7 1 4 1026.3 1025.7 0.0
22/06:30am 8.6 8.0 7.2 91 0.7 CALM 0 0 0 0 1026.4 1025.8 0.0
22/06:00am 8.3 7.5 6.6 89 0.8 CALM 0 4 0 2 1026.4 1025.8 0.0
22/05:30am 8.4 7.6 6.7 89 0.8 CALM 0 0 0 0 1026.4 1025.8 0.0
22/05:00am 8.5 7.8 6.8 89 0.8 CALM 0 0 0 0 1026.4 1025.8 0.0
22/04:30am 8.7 8.0 7.0 89 0.8 CALM 0 0 0 0 1026.6 1026.0 0.0
22/04:00am 8.8 8.2 7.3 90 0.7 CALM 0 0 0 0 1027.0 1026.3 0.0
22/03:30am 8.8 8.2 7.3 90 0.7 CALM 0 0 0 0 1027.3 1026.6 0.0
22/03:00am 8.8 8.1 7.1 89 0.8 CALM 0 0 0 0 1027.8 1027.2 0.0
22/02:30am 8.8 8.1 6.8 87 1.0 CALM 0 0 0 0 1028.1 1027.5 0.0
22/02:00am 9.1 8.4 6.9 86 1.1 CALM 0 0 0 0 1028.7 1028.1 0.0
22/01:30am 9.2 8.5 7.0 86 1.1 CALM 0 0 0 0 1029.2 1028.6 0.0
22/01:00am 9.2 8.5 7.0 86 1.1 CALM 0 0 0 0 1029.6 1029.0 0.0
22/12:30am 9.3 8.5 6.7 84 1.3 CALM 0 4 0 2 1029.9 1029.4 0.0
22/12:00am 9.4 8.3 6.8 84 1.3 N 2 4 1 2 1030.4 1029.8 0.0
 
Date/Time
EDT
Temp
°C
App
Temp
°C
Dew
Point
Rel
Hum
%
Delta-T
°C
Wind Press
QNH
hPa
Press
MSL
hPa
Rain
since 9 am
mm
Dir
 
Spd
km/h
Gust
km/h
Spd
kts
Gust
kts
21/11:30pm 9.5 8.8 7.1 85 1.2 CALM 0 0 0 0 1030.7 1030.1 0.0
21/11:00pm 9.6 9.0 7.2 85 1.2 CALM 0 0 0 0 1030.8 1030.2 0.0
21/10:30pm 9.6 8.9 7.0 84 1.3 CALM 0 0 0 0 1031.0 1030.4 0.0
21/10:00pm 9.7 8.7 7.3 85 1.2 N 2 9 1 5 1031.0 1030.4 0.0
21/09:30pm 9.8 7.8 7.2 84 1.3 NE 7 11 4 6 1030.8 1030.2 0.0
21/09:00pm 10.0 7.7 7.6 85 1.2 ENE 9 15 5 8 1030.9 1030.3 0.0
21/08:30pm 10.2 7.6 7.6 84 1.3 ENE 11 17 6 9 1030.7 1030.1 0.0
21/08:00pm 10.2 7.2 7.6 84 1.3 ENE 13 17 7 9 1030.3 1029.7 0.0
21/07:30pm 10.4 7.9 8.0 85 1.2 ENE 11 17 6 9 1029.9 1029.4 0.0
21/07:00pm 10.9 7.9 7.6 80 1.6 ENE 13 19 7 10 1029.6 1029.0 0.0
21/06:30pm 11.4 8.8 7.9 79 1.8 E 11 17 6 9 1029.6 1029.0 0.0
21/06:00pm 11.7 8.7 7.8 77 2.0 ENE 13 19 7 10 1029.5 1028.9 0.0
21/05:30pm 12.2 8.9 8.1 76 2.1 E 15 20 8 11 1029.5 1028.9 0.0
21/05:00pm 12.4 9.2 8.3 76 2.1 E 15 20 8 11 1029.6 1029.0 0.0
21/04:30pm 12.9 10.1 8.4 74 2.3 E 13 26 7 14 1029.6 1029.0 0.0
21/04:00pm 12.1 8.4 7.8 75 2.2 ESE 17 20 9 11 1029.8 1029.2 0.0
21/03:30pm 12.6 9.9 7.5 71 2.6 E 11 19 6 10 1030.1 1029.6 0.0
21/03:00pm 12.5 9.8 7.4 71 2.5 E 11 17 6 9 1030.6 1030.0 0.0
21/02:30pm 12.2 8.9 6.5 68 2.8 ENE 13 17 7 9 1030.9 1030.3 0.0
21/02:00pm 12.8 10.0 6.8 67 3.0 ENE 11 15 6 8 1031.2 1030.7 0.0
21/01:30pm 12.1 8.8 6.6 69 2.7 ENE 13 20 7 11 1031.6 1031.1 0.0
21/01:00pm 12.2 8.6 6.9 70 2.6 E 15 19 8 10 1032.2 1031.6 0.0
21/12:30pm 12.1 8.8 6.4 68 2.8 ENE 13 19 7 10 1032.4 1031.8 0.0
21/12:00pm 11.8 7.9 5.4 65 3.0 NE 15 22 8 12 1032.7 1032.2 0.0
21/11:30am 12.0 9.0 6.1 67 2.9 ENE 11 24 6 13 1032.8 1032.3 0.0
21/11:00am 11.9 8.2 6.2 68 2.8 ENE 15 24 8 13 1033.0 1032.5 0.0
21/10:30am 11.2 8.6 6.1 71 2.5 E 9 15 5 8 1033.1 1032.6 0.0
21/10:00am 10.5 8.2 5.5 71 2.4 E 7 11 4 6 1033.1 1032.6 0.0
21/09:30am 10.0 6.9 5.6 74 2.1 E 11 15 6 8 1033.0 1032.5 0.0
21/09:00am 9.4 7.4 6.1 80 1.6 SE 6 7 3 4 1032.8 1032.3 0.0
21/08:30am 9.0 7.4 6.3 83 1.3 SE 4 7 2 4 1032.7 1032.2 0.0
21/08:00am 8.7 7.1 6.5 86 1.0 SSE 4 7 2 4 1032.5 1031.9 0.0
21/07:30am 8.3 6.7 6.4 88 0.9 S 4 6 2 3 1032.3 1031.7 0.0
21/07:00am 8.1 6.2 6.6 90 0.7 S 6 7 3 4 1032.0 1031.4 0.0
21/06:30am 7.9 5.9 6.2 89 0.8 S 6 7 3 4 1031.7 1031.2 0.0
21/06:00am 7.7 6.4 6.2 90 0.7 S 2 4 1 2 1031.4 1030.9 0.0
21/05:30am 7.7 6.1 6.3 91 0.7 S 4 6 2 3 1031.3 1030.8 0.0
21/05:00am 7.7 6.1 6.3 91 0.7 S 4 7 2 4 1031.3 1030.8 0.0
21/04:30am 7.6 6.0 6.2 91 0.7 SE 4 6 2 3 1031.4 1030.9 0.0
21/04:00am 7.7 6.5 6.3 91 0.7 SSE 2 4 1 2 1031.5 1031.0 0.0
21/03:30am 7.8 5.7 6.6 92 0.6 SE 7 13 4 7 1031.5 1031.0 0.0
21/03:00am 8.0 5.2 7.1 94 0.4 SE 11 17 6 9 1031.6 1031.1 0.0
21/02:30am 7.9 5.1 6.8 93 0.5 SE 11 15 6 8 1031.7 1031.2 0.0
21/02:00am 7.9 5.5 6.8 93 0.5 ESE 9 11 5 6 1032.1 1031.5 0.0
21/01:30am 7.9 5.5 6.8 93 0.5 SE 9 13 5 7 1032.2 1031.6 0.0
21/01:00am 7.9 4.7 7.0 94 0.4 SE 13 17 7 9 1032.3 1031.7 0.0
21/12:30am 8.1 6.1 7.2 94 0.4 SE 7 11 4 6 1032.6 1032.1 0.0
21/12:00am 8.1 6.1 7.0 93 0.5 SE 7 9 4 5 1032.7 1032.2 0.0
 
Date/Time
EDT
Temp
°C
App
Temp
°C
Dew
Point
Rel
Hum
%
Delta-T
°C
Wind Press
QNH
hPa
Press
MSL
hPa
Rain
since 9 am
mm
Dir
 
Spd
km/h
Gust
km/h
Spd
kts
Gust
kts
20/11:30pm 8.0 6.0 7.1 94 0.4 SE 7 11 4 6 1032.6 1032.1 0.0
20/11:00pm 8.1 6.1 7.3 95 0.4 SE 7 11 4 6 1032.8 1032.3 0.0
20/10:30pm 8.1 6.1 7.2 94 0.4 SE 7 11 4 6 1032.8 1032.3 0.0
20/10:00pm 8.1 5.4 7.2 94 0.4 SE 11 17 6 9 1032.9 1032.4 0.0
20/09:30pm 8.2 5.4 7.1 93 0.5 SE 11 17 6 9 1032.8 1032.3 0.0
20/09:00pm 8.2 5.4 7.1 93 0.5 SE 11 17 6 9 1032.6 1032.1 0.0
20/08:30pm 8.4 5.7 7.3 93 0.5 SE 11 17 6 9 1032.2 1031.6 0.0
20/08:00pm 8.3 4.8 7.2 93 0.5 SE 15 20 8 11 1032.0 1031.4 0.0
20/07:30pm 8.6 6.0 7.7 94 0.4 SE 11 17 6 9 1031.7 1031.2 0.0
20/07:00pm 8.8 5.8 7.7 93 0.5 SE 13 15 7 8 1031.6 1031.1 0.0
20/06:30pm 9.1 6.4 7.4 89 0.8 SE 11 15 6 8 1031.3 1030.8 0.0
20/06:00pm 9.1 5.6 7.2 88 0.9 ESE 15 22 8 12 1031.2 1030.7 0.0
20/05:30pm 9.3 5.9 7.6 89 0.8 SE 15 24 8 13 1031.1 1030.5 0.0
20/05:00pm 9.3 4.9 7.6 89 0.8 SE 20 28 11 15 1031.0 1030.4 0.0
20/04:30pm 9.8 5.8 8.1 89 0.9 ESE 19 26 10 14 1030.7 1030.1 0.0
20/04:00pm 9.9 6.9 7.8 87 1.0 SE 13 19 7 10 1030.7 1030.1 0.0
20/03:30pm 9.9 6.8 7.3 84 1.3 SE 13 19 7 10 1030.8 1030.2 0.0
20/03:00pm 10.9 6.6 7.0 77 1.9 SE 19 24 10 13 1030.9 1030.3 0.0
20/02:30pm 10.9 6.8 7.8 81 1.6 ESE 19 22 10 12 1031.0 1030.4 0.0

Other Formats:

Comma delimited format used in spreadsheet applications
http://www.bom.gov.au/fwo/IDN60801/IDN60801.94927.axf

JavaScript Object Notation format (JSON) in row-major order
http://www.bom.gov.au/fwo/IDN60801/IDN60801.94927.json